Time;durP1;ratioP1;P1;durP2;ratioP2;P2;SDS_P1;SDS_P2;PMS_P1;PMS_P2;Temp;Humidity;BMP_temperature;BMP_pressure;BME280_temperature;BME280_humidity;BME280_pressure;Samples;Min_cycle;Max_cycle;Signal;HPM_P1;HPM_P2
2022/12/04 00:00:10;;;;;;;265.82;130.72;;;;;;;-0.33;100.00;98654.55;1707759;84;20878;-77
2022/12/04 00:02:39;;;;;;;266.12;130.00;;;;;;;-0.28;100.00;98655.28;1715914;83;21029;-77
2022/12/04 00:05:05;;;;;;;277.95;137.35;;;;;;;-0.25;100.00;98643.43;1715570;83;21037;-80
2022/12/04 00:07:31;;;;;;;272.50;134.12;;;;;;;-0.23;100.00;98645.38;1715443;83;21312;-80
2022/12/04 00:09:57;;;;;;;267.07;131.27;;;;;;;-0.22;100.00;98635.86;1715612;83;20863;-80
2022/12/04 00:12:23;;;;;;;262.68;126.35;;;;;;;-0.17;100.00;98637.92;1715315;83;21623;-80
2022/12/04 00:14:49;;;;;;;272.42;134.93;;;;;;;-0.16;100.00;98648.41;1715675;83;20872;-77
2022/12/04 00:17:15;;;;;;;250.15;129.42;;;;;;;-0.14;100.00;98653.02;1715647;83;20979;-80
2022/12/04 00:19:41;;;;;;;267.02;133.87;;;;;;;-0.12;100.00;98652.31;1715865;83;21082;-77
2022/12/04 00:22:07;;;;;;;242.07;122.53;;;;;;;-0.12;100.00;98656.30;1715470;83;20910;-77
2022/12/04 00:24:33;;;;;;;268.42;128.78;;;;;;;-0.12;100.00;98646.98;1715621;83;20911;-80
2022/12/04 00:26:59;;;;;;;263.73;129.72;;;;;;;-0.12;100.00;98654.97;1715534;83;20967;-77
2022/12/04 00:29:25;;;;;;;268.95;131.67;;;;;;;-0.12;100.00;98647.49;1715602;83;20875;-78
2022/12/04 00:31:51;;;;;;;252.82;124.15;;;;;;;-0.14;100.00;98645.54;1721899;83;21845;-77
2022/12/04 00:34:16;;;;;;;270.25;128.25;;;;;;;-0.15;100.00;98647.38;1702351;84;20894;-77
2022/12/04 00:36:42;;;;;;;244.80;120.17;;;;;;;-0.16;100.00;98648.92;1721912;83;21607;-78
2022/12/04 00:39:08;;;;;;;263.77;129.65;;;;;;;-0.19;100.00;98639.45;1702499;84;20878;-80
2022/12/04 00:41:34;;;;;;;264.02;132.67;;;;;;;-0.21;100.00;98643.34;1721851;83;21686;-77
2022/12/04 00:44:01;;;;;;;275.77;136.30;;;;;;;-0.20;100.00;98643.65;1702373;84;21210;-77
2022/12/04 00:46:27;;;;;;;272.25;139.25;;;;;;;-0.24;100.00;98634.42;1721782;83;21020;-77
2022/12/04 00:48:53;;;;;;;303.48;147.28;;;;;;;-0.24;100.00;98644.56;1702368;84;20898;-77
2022/12/04 00:51:21;;;;;;;284.02;142.30;;;;;;;-0.22;100.00;98637.70;1721925;83;21573;-77
2022/12/04 00:53:48;;;;;;;277.38;136.55;;;;;;;-0.21;100.00;98642.01;1702615;84;21060;-80
2022/12/04 00:56:21;;;;;;;258.95;128.07;;;;;;;-0.19;100.00;98638.63;1721867;83;21446;-80
2022/12/04 00:58:49;;;;;;;258.20;123.22;;;;;;;-0.22;100.00;98640.37;1701391;84;21272;-80
2022/12/04 01:01:17;;;;;;;283.95;136.50;;;;;;;-0.26;100.00;98632.44;1725111;83;21003;-80
2022/12/04 01:03:43;;;;;;;244.70;125.95;;;;;;;-0.27;100.00;98624.95;1729947;83;20960;-80
2022/12/04 01:06:24;;;;;;;244.57;117.82;;;;;;;-0.24;100.00;98633.09;1730251;82;20892;-80
2022/12/04 01:08:51;;;;;;;244.50;119.97;;;;;;;-0.25;100.00;98618.95;1701902;83;21083;-79
2022/12/04 01:11:18;;;;;;;226.92;111.85;;;;;;;-0.24;100.00;98616.59;1729912;83;21067;-80
2022/12/04 01:13:44;;;;;;;239.53;119.33;;;;;;;-0.23;100.00;98616.09;1730054;83;21031;-80
2022/12/04 01:16:24;;;;;;;255.12;122.78;;;;;;;-0.24;100.00;98612.59;1730080;82;21468;-77
2022/12/04 01:18:50;;;;;;;268.50;132.43;;;;;;;-0.22;100.00;98613.73;1729397;83;21428;-80
2022/12/04 01:21:18;;;;;;;273.30;144.32;;;;;;;-0.23;100.00;98610.24;1729762;83;21955;-80
2022/12/04 01:23:44;;;;;;;269.32;139.88;;;;;;;-0.25;100.00;98615.47;1729956;83;21087;-79
2022/12/04 01:26:10;;;;;;;259.62;130.55;;;;;;;-0.30;100.00;98606.20;1730150;83;20996;-80
2022/12/04 01:28:36;;;;;;;260.73;126.50;;;;;;;-0.33;100.00;98605.78;1730084;83;20889;-77
2022/12/04 01:31:10;;;;;;;266.88;123.80;;;;;;;-0.32;100.00;98606.09;1710923;82;21027;-80
2022/12/04 01:33:36;;;;;;;239.25;116.47;;;;;;;-0.37;100.00;98608.00;1699292;82;21267;-77
2022/12/04 01:36:04;;;;;;;237.17;120.42;;;;;;;-0.36;100.00;98602.16;1701105;84;21372;-77
2022/12/04 01:38:30;;;;;;;225.40;114.57;;;;;;;-0.35;100.00;98607.80;1700942;84;20996;-77
2022/12/04 01:40:56;;;;;;;207.45;100.40;;;;;;;-0.34;100.00;98602.81;1701101;84;21007;-80
2022/12/04 01:43:23;;;;;;;210.32;103.78;;;;;;;-0.36;100.00;98597.66;1672614;84;20999;-80
2022/12/04 01:45:54;;;;;;;227.07;102.95;;;;;;;-0.35;100.00;98597.97;1700980;84;21504;-80
2022/12/04 01:48:35;;;;;;;207.37;100.78;;;;;;;-0.35;100.00;98600.63;1700624;84;21012;-79
2022/12/04 01:51:17;;;;;;;201.27;96.10;;;;;;;-0.36;100.00;98599.50;1700762;84;21042;-80
2022/12/04 01:53:48;;;;;;;195.68;95.75;;;;;;;-0.39;100.00;98602.05;1700933;84;21444;-77
2022/12/04 01:56:14;;;;;;;193.68;100.18;;;;;;;-0.43;100.00;98603.95;1700818;84;21042;-79
2022/12/04 01:58:42;;;;;;;193.75;92.47;;;;;;;-0.43;100.00;98599.95;1701008;84;21134;-80
2022/12/04 02:01:08;;;;;;;214.90;100.78;;;;;;;-0.46;100.00;98595.86;1710926;83;21799;-80
2022/12/04 02:03:35;;;;;;;207.37;100.33;;;;;;;-0.50;100.00;98601.27;1729808;83;21034;-77
2022/12/04 02:06:00;;;;;;;216.35;109.30;;;;;;;-0.57;100.00;98605.21;1730308;82;20995;-80
2022/12/04 02:08:26;;;;;;;224.47;111.22;;;;;;;-0.59;100.00;98604.59;1730096;83;21658;-77
2022/12/04 02:11:19;;;;;;;237.60;115.40;;;;;;;-0.63;100.00;98599.83;1730119;83;21089;-77
2022/12/04 02:13:56;;;;;;;255.95;118.97;;;;;;;-0.64;100.00;98592.36;1699859;84;21519;-79
2022/12/04 02:16:50;;;;;;;240.30;113.52;;;;;;;-0.68;100.00;98596.95;1700479;84;21043;-79
2022/12/04 02:19:52;;;;;;;237.88;116.22;;;;;;;-0.73;100.00;98591.37;1718841;83;20980;-77
2022/12/04 02:22:57;;;;;;;246.93;115.45;;;;;;;-0.82;100.00;98589.88;1730076;83;20991;-77
2022/12/04 02:25:55;;;;;;;257.27;119.97;;;;;;;-0.90;100.00;98586.33;1730208;82;21180;-77
2022/12/04 02:28:48;;;;;;;259.12;130.63;;;;;;;-0.92;100.00;98591.53;1729369;83;21016;-80
2022/12/04 02:31:20;;;;;;;235.23;114.62;;;;;;;-0.99;100.00;98584.83;1730054;83;21004;-79
2022/12/04 02:34:03;;;;;;;241.93;114.05;;;;;;;-1.02;100.00;98586.55;1729416;83;20964;-79
2022/12/04 02:36:33;;;;;;;239.20;118.65;;;;;;;-1.05;100.00;98586.91;1730019;83;21020;-77
2022/12/04 02:39:18;;;;;;;238.12;119.67;;;;;;;-1.07;100.00;98588.12;1707633;84;21040;-80
2022/12/04 02:41:49;;;;;;;258.52;127.05;;;;;;;-1.05;100.00;98584.76;1729771;83;21068;-77
2022/12/04 02:44:23;;;;;;;250.93;121.92;;;;;;;-1.09;100.00;98584.33;1706391;84;21016;-77
2022/12/04 02:46:53;;;;;;;251.52;121.47;;;;;;;-1.07;100.00;98586.80;1729537;83;21033;-77
2022/12/04 02:49:34;;;;;;;254.05;121.13;;;;;;;-1.06;100.00;98587.11;1707680;83;21025;-77
2022/12/04 02:52:00;;;;;;;250.45;120.53;;;;;;;-1.09;100.00;98588.83;1729944;83;21162;-77
2022/12/04 02:54:37;;;;;;;229.87;112.70;;;;;;;-1.11;100.00;98587.70;1707404;84;21029;-80
2022/12/04 02:57:05;;;;;;;255.05;115.65;;;;;;;-1.12;100.00;98580.70;1729744;83;21017;-77
2022/12/04 02:59:35;;;;;;;237.08;117.77;;;;;;;-1.13;100.00;98579.06;1707580;83;20970;-77
2022/12/04 03:02:08;;;;;;;246.70;117.03;;;;;;;-1.15;100.00;98585.09;1719725;83;21018;-77
2022/12/04 03:04:34;;;;;;;250.00;118.33;;;;;;;-1.18;100.00;98586.30;1715341;83;21157;-79
2022/12/04 03:07:05;;;;;;;237.95;118.87;;;;;;;-1.23;100.00;98587.37;1715581;83;20954;-76
2022/12/04 03:09:46;;;;;;;239.45;115.82;;;;;;;-1.22;100.00;98588.19;1714393;83;21085;-77
2022/12/04 03:12:29;;;;;;;228.75;112.95;;;;;;;-1.21;100.00;98593.31;1715589;83;21010;-77
2022/12/04 03:15:03;;;;;;;244.28;118.67;;;;;;;-1.22;100.00;98598.83;1714380;83;21069;-79
2022/12/04 03:17:37;;;;;;;227.82;105.63;;;;;;;-1.24;100.00;98596.36;1714890;83;21066;-77
2022/12/04 03:20:08;;;;;;;221.45;107.65;;;;;;;-1.23;100.00;98598.52;1714901;83;21030;-77
2022/12/04 03:22:36;;;;;;;227.45;109.83;;;;;;;-1.28;100.00;98591.13;1715457;83;21163;-79
2022/12/04 03:25:02;;;;;;;228.37;112.90;;;;;;;-1.30;100.00;98597.11;1689285;83;21522;-77
2022/12/04 03:27:36;;;;;;;236.05;112.57;;;;;;;-1.32;100.00;98604.46;1715533;83;21065;-80
2022/12/04 03:30:08;;;;;;;215.03;108.10;;;;;;;-1.34;100.00;98599.84;1706749;83;21171;-76
2022/12/04 03:33:01;;;;;;;240.35;112.83;;;;;;;-1.37;100.00;98596.73;1702085;84;21238;-77
2022/12/04 03:35:50;;;;;;;240.55;116.85;;;;;;;-1.44;100.00;98591.37;1721798;83;20977;-77
2022/12/04 03:38:21;;;;;;;217.70;110.03;;;;;;;-1.48;100.00;98592.23;1702162;84;20958;-79
2022/12/04 03:40:56;;;;;;;207.55;98.72;;;;;;;-1.51;100.00;98586.48;1695768;83;21426;-77
2022/12/04 03:43:30;;;;;;;197.13;98.07;;;;;;;-1.52;100.00;98589.64;1701221;84;21163;-79
2022/12/04 03:46:34;;;;;;;214.60;101.67;;;;;;;-1.51;100.00;98582.49;1721347;83;21064;-79
2022/12/04 03:49:20;;;;;;;194.17;96.57;;;;;;;-1.48;100.00;98575.45;1702157;84;21068;-77
2022/12/04 03:51:59;;;;;;;174.20;88.47;;;;;;;-1.44;100.00;98580.73;1721757;83;21014;-79
2022/12/04 03:54:32;;;;;;;173.85;87.95;;;;;;;-1.42;100.00;98582.18;1702534;84;21469;-77
2022/12/04 03:57:06;;;;;;;194.17;93.33;;;;;;;-1.38;100.00;98584.45;1721789;83;21462;-77
2022/12/04 03:59:55;;;;;;;183.52;90.10;;;;;;;-1.37;100.00;98580.77;1702283;84;21009;-77
2022/12/04 04:02:23;;;;;;;188.68;91.25;;;;;;;-1.35;100.00;98580.10;1716536;83;21419;-77
2022/12/04 04:04:52;;;;;;;224.67;116.82;;;;;;;-1.33;100.00;98574.91;1715559;83;21014;-77
2022/12/04 04:07:25;;;;;;;227.18;117.77;;;;;;;-1.31;100.00;98577.36;1715842;83;21073;-80
2022/12/04 04:09:55;;;;;;;224.75;111.60;;;;;;;-1.30;100.00;98587.80;1715666;83;21321;-80
2022/12/04 04:12:24;;;;;;;221.53;111.28;;;;;;;-1.32;100.00;98584.52;1715736;83;21054;-80
2022/12/04 04:26:06;;;;;;;180.22;91.20;;;;;;;-1.38;100.00;98580.46;1715628;83;21037;-77
2022/12/04 04:28:37;;;;;;;177.50;90.97;;;;;;;-1.38;100.00;98579.95;1715610;83;21491;-77
2022/12/04 04:31:14;;;;;;;172.50;87.60;;;;;;;-1.38;100.00;98577.30;1719620;83;21029;-77
2022/12/04 04:34:13;;;;;;;186.62;89.45;;;;;;;-1.39;100.00;98576.16;1701792;84;20950;-79
2022/12/04 04:36:59;;;;;;;181.75;88.30;;;;;;;-1.40;100.00;98574.52;1721905;83;21832;-76
2022/12/04 04:39:48;;;;;;;179.20;85.85;;;;;;;-1.38;100.00;98579.12;1701239;84;21001;-80
2022/12/04 04:42:49;;;;;;;169.60;78.95;;;;;;;-1.38;100.00;98579.12;1721818;83;21021;-80
2022/12/04 04:45:27;;;;;;;129.45;64.32;;;;;;;-1.34;100.00;98580.41;1702205;84;22066;-77
2022/12/04 04:48:18;;;;;;;117.62;59.98;;;;;;;-1.31;100.00;98587.49;1721851;83;21056;-76
2022/12/04 04:50:44;;;;;;;98.12;45.65;;;;;;;-1.29;100.00;98585.45;1702300;84;21239;-79
2022/12/04 04:53:16;;;;;;;98.67;47.05;;;;;;;-1.24;100.00;98595.54;1721567;83;20958;-80
2022/12/04 04:55:42;;;;;;;82.75;40.98;;;;;;;-1.22;100.00;98589.01;1670109;84;21078;-77
2022/12/04 04:58:15;;;;;;;92.50;41.95;;;;;;;-1.19;100.00;98585.98;1721853;83;20902;-79
2022/12/04 05:00:46;;;;;;;91.97;41.35;;;;;;;-1.18;100.00;98586.30;1703351;83;20970;-76
2022/12/04 05:03:12;;;;;;;83.15;38.53;;;;;;;-1.15;100.00;98583.76;1707788;83;21159;-77
2022/12/04 05:05:37;;;;;;;85.50;38.25;;;;;;;-1.10;100.00;98585.34;1716391;83;21053;-79
2022/12/04 05:08:04;;;;;;;78.57;35.78;;;;;;;-1.08;100.00;98589.97;1715965;83;20968;-77
2022/12/04 05:10:30;;;;;;;81.53;39.85;;;;;;;-1.07;100.00;98595.59;1716387;83;21006;-77
2022/12/04 05:12:56;;;;;;;78.10;38.70;;;;;;;-1.06;100.00;98593.25;1716159;83;20891;-77
2022/12/04 05:15:21;;;;;;;71.67;34.48;;;;;;;-1.06;100.00;98589.77;1716375;83;21152;-80
2022/12/04 05:17:47;;;;;;;77.97;38.80;;;;;;;-1.06;100.00;98595.91;1716204;83;21015;-77
2022/12/04 05:20:13;;;;;;;74.07;36.45;;;;;;;-1.03;100.00;98596.84;1716400;83;21061;-77
2022/12/04 05:22:39;;;;;;;87.70;43.48;;;;;;;-1.00;100.00;98601.80;1716093;83;21471;-77
2022/12/04 05:25:06;;;;;;;97.35;44.55;;;;;;;-0.98;100.00;98597.62;1716386;83;20867;-79
2022/12/04 05:27:32;;;;;;;136.40;62.70;;;;;;;-0.94;100.00;98599.72;1716305;83;20969;-80
2022/12/04 05:29:58;;;;;;;128.80;64.70;;;;;;;-0.99;100.00;98594.13;1714411;83;20910;-79
2022/12/04 05:32:25;;;;;;;122.00;62.70;;;;;;;-1.05;100.00;98594.89;1711063;83;21009;-80
2022/12/04 05:34:52;;;;;;;115.85;57.95;;;;;;;-1.12;100.00;98597.17;1706969;84;20997;-77
2022/12/04 05:37:18;;;;;;;115.30;58.78;;;;;;;-1.15;100.00;98599.72;1710782;83;21012;-76
2022/12/04 05:39:44;;;;;;;123.50;61.85;;;;;;;-1.16;100.00;98599.41;1706831;84;22016;-77
2022/12/04 05:42:10;;;;;;;124.15;63.05;;;;;;;-1.16;100.00;98590.09;1711139;83;20894;-77
2022/12/04 05:44:36;;;;;;;111.95;57.70;;;;;;;-1.20;100.00;98595.46;1706670;83;21017;-77
2022/12/04 05:47:02;;;;;;;116.33;57.98;;;;;;;-1.22;100.00;98589.52;1711127;83;20898;-81
2022/12/04 05:49:29;;;;;;;114.55;57.67;;;;;;;-1.20;100.00;98594.13;1706882;83;20909;-77
2022/12/04 05:51:55;;;;;;;116.40;54.23;;;;;;;-1.18;100.00;98594.79;1710962;83;21871;-80
2022/12/04 05:54:21;;;;;;;127.65;59.63;;;;;;;-1.17;100.00;98597.77;1706793;84;20890;-77
2022/12/04 05:56:47;;;;;;;112.03;53.40;;;;;;;-1.13;100.00;98593.69;1711489;83;20945;-80
2022/12/04 05:59:13;;;;;;;113.42;59.70;;;;;;;-1.07;100.00;98606.75;1706811;84;21371;-79
2022/12/04 06:01:39;;;;;;;124.33;57.88;;;;;;;-1.07;100.00;98602.25;1696155;83;20987;-77
2022/12/04 06:04:05;;;;;;;146.90;61.48;;;;;;;-1.07;100.00;98608.89;1720811;83;21063;-77
2022/12/04 06:06:31;;;;;;;127.40;54.93;;;;;;;-1.07;100.00;98600.92;1718266;83;20939;-79
2022/12/04 06:08:58;;;;;;;135.52;61.85;;;;;;;-1.08;100.00;98607.77;1718005;83;20875;-80
2022/12/04 06:11:28;;;;;;;119.77;50.75;;;;;;;-1.06;100.00;98609.72;1718379;83;21014;-78
2022/12/04 06:13:55;;;;;;;122.78;56.08;;;;;;;-1.04;100.00;98615.16;1717612;83;21511;-77
2022/12/04 06:16:27;;;;;;;127.80;59.40;;;;;;;-1.05;100.00;98611.36;1718253;83;21162;-77
2022/12/04 06:18:58;;;;;;;137.60;63.73;;;;;;;-1.07;100.00;98610.23;1717719;83;21510;-77
2022/12/04 06:21:27;;;;;;;149.15;65.75;;;;;;;-1.09;100.00;98610.94;1717905;83;21517;-79
2022/12/04 06:23:53;;;;;;;144.95;64.50;;;;;;;-1.12;100.00;98603.82;1717870;83;21051;-77
2022/12/04 06:26:19;;;;;;;128.85;58.42;;;;;;;-1.14;100.00;98608.83;1718290;83;20936;-77
2022/12/04 06:28:45;;;;;;;141.85;61.60;;;;;;;-1.14;100.00;98604.02;1717999;83;21089;-80
2022/12/04 06:31:12;;;;;;;146.82;60.05;;;;;;;-1.16;100.00;98612.70;1734645;82;20890;-77
2022/12/04 06:33:38;;;;;;;175.70;76.72;;;;;;;-1.18;100.00;98609.42;1741221;82;20973;-80
2022/12/04 06:36:07;;;;;;;188.97;85.45;;;;;;;-1.27;100.00;98614.03;1741040;82;21053;-77
2022/12/04 06:38:33;;;;;;;201.92;87.00;;;;;;;-1.31;100.00;98623.39;1741485;82;21049;-77
2022/12/04 06:41:04;;;;;;;176.27;82.97;;;;;;;-1.31;100.00;98615.92;1741434;82;21212;-77
2022/12/04 06:43:30;;;;;;;169.68;76.20;;;;;;;-1.33;100.00;98616.63;1712994;82;21017;-80
2022/12/04 06:46:06;;;;;;;134.18;56.83;;;;;;;-1.32;100.00;98613.77;1741473;82;20994;-77
2022/12/04 06:48:33;;;;;;;137.45;64.22;;;;;;;-1.28;100.00;98616.86;1677118;85;21462;-77
2022/12/04 06:51:11;;;;;;;161.62;71.05;;;;;;;-1.32;100.00;98612.44;1677661;85;21049;-80
2022/12/04 06:53:37;;;;;;;144.68;59.20;;;;;;;-1.31;100.00;98613.27;1677479;85;21169;-77
2022/12/04 06:56:06;;;;;;;121.57;56.40;;;;;;;-1.29;100.00;98615.22;1677571;85;21505;-77
2022/12/04 06:58:32;;;;;;;143.70;61.13;;;;;;;-1.36;100.00;98618.34;1677435;85;21064;-79
2022/12/04 07:00:58;;;;;;;148.62;64.75;;;;;;;-1.36;100.00;98619.16;1651160;85;20913;-80
2022/12/04 07:03:24;;;;;;;166.10;73.97;;;;;;;-1.33;100.00;98619.28;1677948;85;20923;-77
2022/12/04 07:05:50;;;;;;;169.87;77.12;;;;;;;-1.27;100.00;98619.86;1677843;85;21117;-77
2022/12/04 07:08:16;;;;;;;173.72;75.62;;;;;;;-1.33;100.00;98618.77;1677890;85;21091;-77
2022/12/04 07:10:42;;;;;;;187.47;83.22;;;;;;;-1.38;100.00;98612.36;1678040;85;21453;-80
2022/12/04 07:13:08;;;;;;;178.50;74.90;;;;;;;-1.43;100.00;98605.80;1677878;85;20877;-76
2022/12/04 07:15:34;;;;;;;165.75;68.50;;;;;;;-1.44;100.00;98602.82;1678009;85;21058;-79
2022/12/04 07:18:00;;;;;;;157.03;68.28;;;;;;;-1.42;100.00;98595.47;1677581;85;21103;-80
2022/12/04 07:20:26;;;;;;;169.43;74.55;;;;;;;-1.42;100.00;98595.98;1677927;85;21011;-77
2022/12/04 07:22:52;;;;;;;151.10;64.20;;;;;;;-1.44;100.00;98601.48;1677880;85;20987;-80
2022/12/04 07:25:18;;;;;;;140.90;67.82;;;;;;;-1.43;100.00;98604.47;1701807;83;20874;-77
2022/12/04 07:27:44;;;;;;;176.57;77.42;;;;;;;-1.37;100.00;98601.53;1716757;83;20897;-77
2022/12/04 07:30:10;;;;;;;178.55;82.08;;;;;;;-1.31;100.00;98599.97;1708288;83;20940;-80
2022/12/04 07:32:36;;;;;;;153.60;75.45;;;;;;;-1.22;100.00;98598.31;1687903;85;21088;-80
2022/12/04 07:35:03;;;;;;;166.50;76.72;;;;;;;-1.16;100.00;98599.41;1687873;85;20984;-80
2022/12/04 07:37:29;;;;;;;168.50;83.37;;;;;;;-1.06;100.00;98596.42;1687899;85;21060;-77
2022/12/04 07:39:55;;;;;;;166.15;77.85;;;;;;;-1.03;100.00;98593.36;1687718;85;21079;-77
2022/12/04 07:42:21;;;;;;;184.15;89.50;;;;;;;-0.97;100.00;98591.27;1687994;85;21163;-77
2022/12/04 07:44:47;;;;;;;291.68;117.65;;;;;;;-0.89;100.00;98597.28;1687709;85;20961;-77
2022/12/04 07:47:13;;;;;;;317.23;131.90;;;;;;;-0.79;100.00;98582.82;1688126;85;20996;-77
2022/12/04 07:49:38;;;;;;;238.03;105.65;;;;;;;-0.71;100.00;98584.01;1687855;85;21511;-80
2022/12/04 07:52:04;;;;;;;200.40;91.28;;;;;;;-0.69;100.00;98581.45;1688110;85;20889;-80
2022/12/04 07:54:30;;;;;;;204.10;96.02;;;;;;;-0.67;100.00;98579.95;1687858;82;21751;-80
2022/12/04 07:56:56;;;;;;;160.43;80.28;;;;;;;-0.67;100.00;98579.95;1713324;83;20906;-80
2022/12/04 07:59:22;;;;;;;140.85;64.53;;;;;;;-0.66;100.00;98582.93;1713123;83;20891;-80
2022/12/04 08:01:48;;;;;;;152.55;72.25;;;;;;;-0.59;100.00;98578.48;1731655;82;20891;-77
2022/12/04 08:04:14;;;;;;;163.65;74.77;;;;;;;-0.54;100.00;98576.04;1742093;82;20955;-79
2022/12/04 08:06:40;;;;;;;159.15;81.32;;;;;;;-0.54;100.00;98573.38;1742968;82;20979;-80
2022/12/04 08:09:06;;;;;;;148.13;73.85;;;;;;;-0.57;100.00;98573.78;1742776;82;21050;-80
2022/12/04 08:11:32;;;;;;;144.10;71.10;;;;;;;-0.49;100.00;98576.29;1743148;82;21061;-77
2022/12/04 08:14:00;;;;;;;151.97;75.52;;;;;;;-0.43;100.00;98578.15;1742626;82;20887;-80
2022/12/04 08:16:28;;;;;;;143.57;70.40;;;;;;;-0.48;100.00;98574.45;1742316;82;21041;-77
2022/12/04 08:18:54;;;;;;;149.50;74.07;;;;;;;-0.53;100.00;98582.19;1741681;82;21121;-77
2022/12/04 08:21:22;;;;;;;145.00;74.22;;;;;;;-0.49;100.00;98578.13;1741824;82;21025;-77
2022/12/04 08:23:52;;;;;;;143.60;74.42;;;;;;;-0.47;100.00;98584.08;1741481;82;21022;-80
2022/12/04 08:26:19;;;;;;;134.05;72.12;;;;;;;-0.40;100.00;98584.44;1741878;82;21094;-78
2022/12/04 08:28:45;;;;;;;138.47;71.62;;;;;;;-0.34;100.00;98583.66;1741507;82;21093;-77
2022/12/04 08:31:17;;;;;;;143.22;70.60;;;;;;;-0.26;100.00;98576.50;1721605;82;21168;-77
2022/12/04 08:33:43;;;;;;;141.55;70.32;;;;;;;-0.20;100.00;98579.20;1713192;83;21061;-80
2022/12/04 08:36:12;;;;;;;134.78;64.85;;;;;;;-0.12;100.00;98580.89;1669316;83;21029;-77
2022/12/04 08:38:38;;;;;;;128.07;62.40;;;;;;;-0.05;100.00;98584.41;1713418;83;21515;-80
2022/12/04 08:41:07;;;;;;;128.38;62.85;;;;;;;0.06;100.00;98599.83;1713446;83;20990;-79
2022/12/04 08:43:33;;;;;;;130.37;64.55;;;;;;;0.12;100.00;98603.55;1713316;83;21111;-77
2022/12/04 08:46:03;;;;;;;102.72;55.05;;;;;;;0.21;100.00;98608.51;1713519;83;20855;-80
2022/12/04 08:48:29;;;;;;;105.50;50.75;;;;;;;0.23;100.00;98614.97;1713345;83;21071;-80
2022/12/04 08:50:55;;;;;;;112.15;56.85;;;;;;;0.23;100.00;98612.30;1713523;83;20894;-78
2022/12/04 08:53:22;;;;;;;114.42;58.52;;;;;;;0.19;100.00;98607.89;1713499;83;21430;-77
2022/12/04 08:55:48;;;;;;;112.80;59.58;;;;;;;0.20;100.00;98610.87;1713267;83;21179;-77
2022/12/04 08:58:14;;;;;;;101.27;55.45;;;;;;;0.28;100.00;98608.03;1713363;83;21010;-80
2022/12/04 09:00:40;;;;;;;109.80;51.35;;;;;;;0.34;100.00;98602.91;1717535;82;20906;-80
2022/12/04 09:03:05;;;;;;;110.83;56.23;;;;;;;0.51;100.00;98606.86;1743049;82;21576;-77
2022/12/04 09:05:31;;;;;;;105.10;53.20;;;;;;;0.50;100.00;98598.55;1738021;82;20884;-80
2022/12/04 09:07:57;;;;;;;82.70;42.93;;;;;;;0.45;100.00;98598.34;1743109;82;21859;-77
2022/12/04 09:10:23;;;;;;;169.80;77.12;;;;;;;0.45;100.00;98598.34;1743150;82;20911;-77
2022/12/04 09:12:49;;;;;;;99.62;51.15;;;;;;;0.49;100.00;98602.24;1742924;82;20957;-77
2022/12/04 09:15:15;;;;;;;84.22;41.23;;;;;;;0.58;100.00;98601.03;1743051;82;21002;-80
2022/12/04 09:17:41;;;;;;;84.25;40.00;;;;;;;0.74;100.00;98603.84;1743107;82;20978;-77
2022/12/04 09:20:07;;;;;;;103.65;53.70;;;;;;;0.82;100.00;98604.98;1742877;82;21828;-80
2022/12/04 09:22:34;;;;;;;97.33;56.15;;;;;;;0.82;100.00;98603.14;1743329;82;21057;-77
2022/12/04 09:25:00;;;;;;;115.47;70.67;;;;;;;0.89;100.00;98597.82;1742778;82;21030;-77
2022/12/04 09:27:26;;;;;;;111.75;67.20;;;;;;;0.82;100.00;98595.65;1742897;82;20882;-79
2022/12/04 09:29:52;;;;;;;89.65;48.78;;;;;;;0.87;100.00;98593.72;1739552;82;21048;-80
2022/12/04 09:32:18;;;;;;;104.45;59.20;;;;;;;0.97;100.00;98586.95;1707214;84;20989;-77
2022/12/04 09:34:47;;;;;;;83.95;48.00;;;;;;;1.03;100.00;98585.33;1710935;83;21657;-77
2022/12/04 09:37:16;;;;;;;70.17;36.63;;;;;;;1.15;100.00;98580.18;1706794;83;21445;-80
2022/12/04 09:39:42;;;;;;;78.35;43.38;;;;;;;1.18;100.00;98578.42;1711147;83;22044;-77
2022/12/04 09:42:49;;;;;;;84.90;49.38;;;;;;;1.15;100.00;98574.84;1706853;83;21678;-77
2022/12/04 09:45:22;;;;;;;86.63;47.73;;;;;;;1.16;100.00;98584.48;1710913;83;21176;-77
2022/12/04 09:47:52;;;;;;;76.82;39.80;;;;;;;1.10;100.00;98580.27;1702248;83;21013;-77
2022/12/04 09:50:40;;;;;;;76.62;41.75;;;;;;;1.10;100.00;98571.44;1710681;83;21410;-80
2022/12/04 09:53:13;;;;;;;70.62;37.73;;;;;;;1.18;100.00;98569.90;1706979;83;20993;-78
2022/12/04 09:55:56;;;;;;;68.72;36.20;;;;;;;1.31;100.00;98567.23;1709861;83;21014;-80
2022/12/04 09:58:33;;;;;;;70.03;36.80;;;;;;;1.37;100.00;98562.41;1641061;84;21340;-77
2022/12/04 10:00:59;;;;;;;65.45;34.65;;;;;;;1.38;100.00;98554.70;1703351;83;21054;-80
2022/12/04 10:03:27;;;;;;;62.98;33.65;;;;;;;1.38;100.00;98547.20;1671419;85;21009;-77
2022/12/04 10:06:13;;;;;;;68.80;35.50;;;;;;;1.41;100.00;98541.44;1717700;83;20998;-80
2022/12/04 10:08:44;;;;;;;70.20;37.63;;;;;;;1.44;100.00;98540.19;1687744;85;21525;-77
2022/12/04 10:11:37;;;;;;;108.12;61.58;;;;;;;1.44;100.00;98532.18;1716880;83;21058;-80
2022/12/04 10:14:42;;;;;;;81.05;41.05;;;;;;;1.38;100.00;98535.19;1717448;83;21002;-77
2022/12/04 10:17:23;;;;;;;72.12;37.48;;;;;;;1.42;100.00;98523.05;1718038;83;20998;-80
2022/12/04 10:20:09;;;;;;;87.75;45.30;;;;;;;1.46;100.00;98512.78;1717711;83;21006;-77
2022/12/04 10:22:55;;;;;;;74.95;40.48;;;;;;;1.48;100.00;98506.71;1717841;83;21806;-77
2022/12/04 10:25:21;;;;;;;65.30;34.80;;;;;;;1.47;100.00;98500.55;1717917;83;22040;-77
2022/12/04 10:28:07;;;;;;;56.58;32.67;;;;;;;1.47;100.00;98501.06;1717623;83;21010;-80
2022/12/04 10:30:34;;;;;;;65.72;33.15;;;;;;;1.44;100.00;98504.14;1720499;83;21457;-80
2022/12/04 10:33:05;;;;;;;66.65;33.25;;;;;;;1.44;100.00;98514.82;1707520;84;20989;-77
2022/12/04 10:35:31;;;;;;;63.52;36.45;;;;;;;1.47;100.00;98507.75;1729621;83;21017;-77
2022/12/04 10:38:07;;;;;;;66.07;33.65;;;;;;;1.47;100.00;98497.88;1707565;84;21214;-80
2022/12/04 10:40:45;;;;;;;60.52;32.13;;;;;;;1.49;100.00;98497.66;1729468;83;21008;-77
2022/12/04 10:43:30;;;;;;;68.22;31.15;;;;;;;1.55;100.00;98494.16;1681782;84;20994;-80
2022/12/04 10:45:56;;;;;;;71.05;37.63;;;;;;;1.63;100.00;98497.94;1729663;83;21004;-78
2022/12/04 10:48:27;;;;;;;62.85;34.50;;;;;;;1.69;100.00;98488.55;1707662;84;20882;-80
2022/12/04 10:50:55;;;;;;;68.07;33.65;;;;;;;1.73;100.00;98489.48;1729490;83;21737;-77
2022/12/04 10:53:25;;;;;;;76.90;38.83;;;;;;;1.78;100.00;98492.31;1707645;83;21025;-77
2022/12/04 10:55:51;;;;;;;96.10;48.10;;;;;;;1.77;100.00;98488.83;1700319;83;21053;-77
2022/12/04 10:58:19;;;;;;;65.42;33.95;;;;;;;1.81;100.00;98487.39;1707642;84;20941;-80
2022/12/04 11:00:49;;;;;;;68.73;35.90;;;;;;;1.87;100.00;98485.70;1727451;83;21022;-79
2022/12/04 11:03:25;;;;;;;60.30;31.70;;;;;;;1.91;100.00;98487.75;1714116;83;21097;-77
2022/12/04 11:05:55;;;;;;;63.35;32.23;;;;;;;1.97;100.00;98482.08;1688768;83;21470;-80
2022/12/04 11:08:23;;;;;;;70.45;39.53;;;;;;;2.01;100.00;98485.13;1715372;83;20982;-80
2022/12/04 11:10:59;;;;;;;66.25;31.95;;;;;;;2.05;100.00;98486.33;1715356;83;21002;-80
2022/12/04 11:13:25;;;;;;;66.25;32.28;;;;;;;2.09;100.00;98475.53;1715525;83;21010;-80
2022/12/04 11:15:55;;;;;;;60.58;32.88;;;;;;;2.12;100.00;98479.92;1715506;83;21159;-82
2022/12/04 11:18:30;;;;;;;64.32;32.88;;;;;;;2.12;100.00;98481.25;1715544;83;20958;-77
2022/12/04 11:21:08;;;;;;;70.10;34.92;;;;;;;2.14;100.00;98479.73;1715295;83;21002;-80
2022/12/04 11:23:45;;;;;;;49.88;26.87;;;;;;;2.20;100.00;98484.20;1715432;83;21010;-80
2022/12/04 11:26:12;;;;;;;69.65;36.23;;;;;;;2.24;100.00;98485.43;1714893;83;20986;-80
2022/12/04 11:28:39;;;;;;;63.08;32.65;;;;;;;2.31;100.00;98488.89;1715445;83;21885;-77